Time;durP1;ratioP1;P1;durP2;ratioP2;P2;SDS_P1;SDS_P2;PMS_P1;PMS_P2;Temp;Humidity;BMP_temperature;BMP_pressure;BME280_temperature;BME280_humidity;BME280_pressure;Samples;Min_cycle;Max_cycle;Signal;HPM_P1;HPM_P2
2021/09/30 00:00:11;;;;;;;1.52;0.80;;;25.20;51.70;;;;;;5023455;28;20034;-60
2021/09/30 00:02:36;;;;;;;1.52;0.77;;;25.10;52.20;;;;;;5024559;28;20140;-60
2021/09/30 00:05:04;;;;;;;1.35;0.80;;;25.10;51.70;;;;;;5023871;28;20981;-61
2021/09/30 00:07:30;;;;;;;1.60;0.68;;;25.10;51.70;;;;;;5026545;28;20052;-61
2021/09/30 00:09:56;;;;;;;1.52;0.70;;;25.10;51.80;;;;;;5025950;28;20038;-59
2021/09/30 00:12:31;;;;;;;1.58;0.70;;;25.00;51.70;;;;;;5026085;28;20038;-60
2021/09/30 00:15:05;;;;;;;1.75;1.00;;;25.10;51.80;;;;;;5015700;28;20674;-58
2021/09/30 02:23:26;;;;;;;0.85;0.60;;;24.30;52.50;;;;;;5025937;28;20041;-59
2021/09/30 02:58:42;;;;;;;1.50;0.70;;;24.10;52.60;;;;;;5024191;28;20568;-59
2021/09/30 03:01:16;;;;;;;1.15;0.50;;;24.10;52.60;;;;;;5021974;28;20088;-60
2021/09/30 03:03:43;;;;;;;0.80;0.40;;;24.10;52.70;;;;;;5036843;28;20651;-54
2021/09/30 03:06:10;;;;;;;1.08;0.57;;;24.10;52.70;;;;;;5026029;28;20026;-60
2021/09/30 03:08:42;;;;;;;1.05;0.60;;;24.10;52.70;;;;;;5028386;28;20036;-61
2021/09/30 03:11:08;;;;;;;0.88;0.50;;;24.00;52.60;;;;;;5022659;28;20031;-58
2021/09/30 03:13:35;;;;;;;0.43;0.43;;;24.00;52.60;;;;;;5025727;28;20154;-61
2021/09/30 03:16:10;;;;;;;1.20;0.50;;;24.00;52.60;;;;;;5024819;28;20545;-58
2021/09/30 03:23:30;;;;;;;0.70;0.50;;;24.00;52.70;;;;;;5025233;28;20117;-59
2021/09/30 03:25:56;;;;;;;0.52;0.50;;;24.00;52.70;;;;;;5017069;28;20034;-61
2021/09/30 03:28:26;;;;;;;0.80;0.50;;;24.00;52.70;;;;;;5022155;28;20037;-61
2021/09/30 03:30:53;;;;;;;1.25;0.50;;;24.00;52.70;;;;;;5025036;28;20041;-58
2021/09/30 03:33:21;;;;;;;1.00;0.60;;;24.00;52.70;;;;;;5025124;28;20059;-60
2021/09/30 03:35:48;;;;;;;0.93;0.50;;;23.90;53.20;;;;;;5028013;28;20037;-59
2021/09/30 03:38:14;;;;;;;0.40;0.40;;;23.90;52.70;;;;;;5019639;28;20026;-61
2021/09/30 03:40:42;;;;;;;0.75;0.50;;;23.90;52.70;;;;;;5027680;28;20037;-58
2021/09/30 03:43:07;;;;;;;0.68;0.50;;;23.90;52.80;;;;;;5026216;28;20485;-60
2021/09/30 03:45:34;;;;;;;0.73;0.50;;;23.90;52.80;;;;;;5026309;28;20037;-61
2021/09/30 03:48:00;;;;;;;0.82;0.52;;;23.90;52.80;;;;;;5027225;28;20037;-58
2021/09/30 03:50:30;;;;;;;0.70;0.55;;;23.90;52.80;;;;;;5027867;28;20040;-61
2021/09/30 04:01:02;;;;;;;0.93;0.50;;;23.90;52.80;;;;;;5019115;28;20393;-59
2021/09/30 04:03:28;;;;;;;0.68;0.50;;;23.80;52.80;;;;;;5021194;28;20029;-59
2021/09/30 04:05:54;;;;;;;0.77;0.50;;;23.80;52.80;;;;;;5029727;28;20034;-60
2021/09/30 04:08:19;;;;;;;0.80;0.60;;;23.80;52.80;;;;;;5034362;28;20565;-57
2021/09/30 04:10:45;;;;;;;0.63;0.50;;;23.80;52.80;;;;;;5023931;28;20057;-59
2021/09/30 04:13:10;;;;;;;0.63;0.50;;;23.80;52.90;;;;;;5031092;28;20881;-58
2021/09/30 04:15:36;;;;;;;0.60;0.45;;;23.80;52.90;;;;;;5022586;28;20033;-55
2021/09/30 04:18:02;;;;;;;0.80;0.60;;;23.80;52.90;;;;;;5027943;28;20481;-59
2021/09/30 04:20:28;;;;;;;0.55;0.47;;;23.80;52.90;;;;;;5022717;28;20033;-60
2021/09/30 04:22:53;;;;;;;0.90;0.50;;;23.80;52.90;;;;;;5022659;28;20454;-58
2021/09/30 04:25:19;;;;;;;0.85;0.55;;;23.70;52.80;;;;;;5019760;28;20093;-59
2021/09/30 04:27:45;;;;;;;0.52;0.45;;;23.70;52.80;;;;;;5023502;28;20025;-56
2021/09/30 04:30:11;;;;;;;0.70;0.57;;;23.70;52.80;;;;;;5017192;28;20104;-60
2021/09/30 04:32:37;;;;;;;0.65;0.50;;;23.70;52.80;;;;;;5020824;28;20048;-57
2021/09/30 04:35:03;;;;;;;0.85;0.50;;;23.70;52.80;;;;;;5025903;28;20026;-62
2021/09/30 04:37:29;;;;;;;0.63;0.43;;;23.70;52.80;;;;;;5024266;28;20123;-60
2021/09/30 04:39:55;;;;;;;0.70;0.47;;;23.70;52.70;;;;;;5026162;28;20053;-61
2021/09/30 04:42:21;;;;;;;0.40;0.40;;;23.70;52.70;;;;;;5018419;28;20134;-57
2021/09/30 04:44:47;;;;;;;0.93;0.60;;;23.70;52.70;;;;;;5024124;28;20040;-61
2021/09/30 04:47:13;;;;;;;0.40;0.40;;;23.70;52.70;;;;;;5023311;28;20033;-59
2021/09/30 04:49:38;;;;;;;0.88;0.60;;;23.70;52.70;;;;;;5022454;28;20032;-60
2021/09/30 04:52:05;;;;;;;1.00;0.60;;;23.70;52.70;;;;;;5021702;28;20371;-59
2021/09/30 04:54:30;;;;;;;1.50;0.40;;;23.60;52.60;;;;;;5026528;28;20033;-53
2021/09/30 04:56:56;;;;;;;0.95;0.55;;;23.60;52.70;;;;;;5026015;28;20450;-61
2021/09/30 04:59:22;;;;;;;1.27;0.60;;;23.60;52.60;;;;;;5022074;28;20373;-56
2021/09/30 05:01:47;;;;;;;0.85;0.60;;;23.60;52.60;;;;;;5020053;28;20117;-60
2021/09/30 05:04:13;;;;;;;0.85;0.60;;;23.60;52.70;;;;;;5027022;28;20029;-60
2021/09/30 05:06:38;;;;;;;0.95;0.60;;;23.60;52.70;;;;;;5022466;28;20100;-58
2021/09/30 05:09:04;;;;;;;0.65;0.40;;;23.60;52.70;;;;;;5006478;28;20623;-57
2021/09/30 05:11:34;;;;;;;0.80;0.40;;;23.60;52.70;;;;;;5020738;28;20541;-61
2021/09/30 05:14:00;;;;;;;1.13;0.70;;;23.60;52.70;;;;;;5013776;28;20041;-60
2021/09/30 05:16:26;;;;;;;0.47;0.40;;;23.60;52.70;;;;;;5014636;28;20059;-59
2021/09/30 05:18:55;;;;;;;0.93;0.60;;;23.60;52.70;;;;;;5013861;28;20485;-58
2021/09/30 05:21:21;;;;;;;1.10;0.60;;;23.60;52.70;;;;;;5014977;28;20065;-57
2021/09/30 05:23:48;;;;;;;0.68;0.52;;;23.50;52.70;;;;;;5020737;28;20175;-60
2021/09/30 05:26:14;;;;;;;1.38;0.60;;;23.50;52.70;;;;;;5019724;28;20074;-58
2021/09/30 05:28:40;;;;;;;0.95;0.52;;;23.60;52.70;;;;;;5017453;28;20030;-60
2021/09/30 05:31:06;;;;;;;1.88;0.43;;;23.60;53.20;;;;;;5014818;28;20577;-57
2021/09/30 05:33:32;;;;;;;0.55;0.38;;;23.50;52.70;;;;;;5019309;28;20033;-55
2021/09/30 05:35:58;;;;;;;0.40;0.40;;;23.50;52.70;;;;;;5037748;28;20459;-56
2021/09/30 05:38:23;;;;;;;0.88;0.50;;;23.50;52.70;;;;;;5021797;28;20069;-55
2021/09/30 05:40:49;;;;;;;0.70;0.52;;;23.50;52.70;;;;;;5023279;28;20068;-56
2021/09/30 05:43:30;;;;;;;0.68;0.50;;;23.50;52.70;;;;;;5015116;28;20606;-60
2021/09/30 05:45:57;;;;;;;0.82;0.60;;;23.50;52.70;;;;;;5013151;28;20030;-59
2021/09/30 05:48:24;;;;;;;1.25;0.60;;;23.50;52.70;;;;;;5016408;28;21246;-60
2021/09/30 05:50:50;;;;;;;1.42;0.60;;;23.40;52.70;;;;;;5012069;28;20037;-60
2021/09/30 05:53:17;;;;;;;1.23;0.50;;;23.50;52.90;;;;;;5015230;28;20125;-55
2021/09/30 05:55:43;;;;;;;0.52;0.50;;;23.50;53.00;;;;;;5026017;28;20591;-61
2021/09/30 05:58:09;;;;;;;1.42;0.50;;;23.50;53.00;;;;;;5027192;28;20032;-56
2021/09/30 06:12:07;;;;;;;0.52;0.45;;;23.60;52.90;;;;;;5018882;28;20034;-59
2021/09/30 06:14:09;;;;;;;1.17;0.60;;;23.70;52.80;;;;;;5015027;28;20053;-59
2021/09/30 06:16:36;;;;;;;0.95;0.55;;;23.70;52.80;;;;;;5031900;28;20036;-57
2021/09/30 06:19:03;;;;;;;1.58;0.50;;;23.70;52.80;;;;;;5030630;28;20053;-56
2021/09/30 06:21:30;;;;;;;1.25;0.50;;;23.70;52.90;;;;;;5022141;28;20033;-58
2021/09/30 06:23:56;;;;;;;0.93;0.50;;;23.70;52.80;;;;;;5023501;28;20025;-55
2021/09/30 06:26:21;;;;;;;1.38;0.70;;;23.80;52.70;;;;;;5017395;28;20041;-54
2021/09/30 06:28:47;;;;;;;1.25;0.70;;;23.80;52.60;;;;;;5025546;28;20473;-60
2021/09/30 06:31:12;;;;;;;2.08;0.50;;;23.80;52.70;;;;;;5026000;28;20121;-54
2021/09/30 06:33:38;;;;;;;0.50;0.50;;;23.90;52.80;;;;;;5024700;28;20040;-54
2021/09/30 06:36:04;;;;;;;1.10;0.60;;;23.90;52.70;;;;;;5025150;28;20680;-58
2021/09/30 06:38:30;;;;;;;0.60;0.60;;;23.90;52.60;;;;;;5025924;28;20084;-58
2021/09/30 06:40:56;;;;;;;1.13;0.60;;;23.90;52.50;;;;;;5029677;28;20120;-59
2021/09/30 06:43:21;;;;;;;0.82;0.50;;;24.00;52.50;;;;;;5026943;28;20033;-59
2021/09/30 06:45:49;;;;;;;1.25;0.70;;;24.00;52.50;;;;;;5029852;28;20044;-56
2021/09/30 06:48:15;;;;;;;1.65;0.70;;;24.00;52.40;;;;;;5035513;28;20108;-59
2021/09/30 06:50:41;;;;;;;0.82;0.60;;;24.00;52.30;;;;;;5027191;28;20099;-59
2021/09/30 06:53:07;;;;;;;1.63;0.60;;;24.10;52.30;;;;;;5022663;28;20057;-54
2021/09/30 06:55:33;;;;;;;1.40;0.60;;;24.10;52.30;;;;;;5028761;28;20374;-60
2021/09/30 06:58:00;;;;;;;0.90;0.50;;;24.10;52.20;;;;;;5027841;28;20028;-57
2021/09/30 07:00:26;;;;;;;0.60;0.50;;;24.10;52.20;;;;;;5021501;28;20021;-59
2021/09/30 07:02:52;;;;;;;1.30;0.80;;;24.10;52.20;;;;;;5023611;28;20435;-56
2021/09/30 07:05:19;;;;;;;1.38;0.73;;;24.10;52.10;;;;;;5023811;28;20287;-55
2021/09/30 07:07:45;;;;;;;1.08;0.50;;;24.10;52.00;;;;;;5028918;28;20038;-54
2021/09/30 07:10:11;;;;;;;1.45;0.60;;;24.10;52.00;;;;;;5030605;28;20033;-58
2021/09/30 07:12:38;;;;;;;1.08;0.60;;;24.20;52.00;;;;;;5027868;28;20025;-60
2021/09/30 07:15:04;;;;;;;1.15;0.50;;;24.20;52.00;;;;;;5021298;28;20029;-56
2021/09/30 07:17:30;;;;;;;2.42;0.70;;;24.20;52.00;;;;;;5026509;28;20047;-60
2021/09/30 07:19:57;;;;;;;1.50;0.70;;;24.30;52.00;;;;;;5024883;28;20477;-61
2021/09/30 07:22:24;;;;;;;0.77;0.60;;;24.30;52.00;;;;;;5022593;28;20029;-56
2021/09/30 07:24:50;;;;;;;1.63;0.70;;;24.30;52.00;;;;;;5021163;28;20056;-56
2021/09/30 07:27:16;;;;;;;0.77;0.68;;;24.30;51.90;;;;;;5023451;28;20026;-53
2021/09/30 07:29:42;;;;;;;0.90;0.70;;;24.30;52.40;;;;;;5024533;28;20029;-57
2021/09/30 07:32:08;;;;;;;1.20;0.68;;;24.30;51.90;;;;;;5024595;28;20033;-52
2021/09/30 07:34:34;;;;;;;1.92;0.63;;;24.30;51.80;;;;;;5018615;28;20116;-60
2021/09/30 07:37:00;;;;;;;2.03;0.70;;;24.30;51.80;;;;;;5015255;28;20029;-60
2021/09/30 07:39:26;;;;;;;1.33;0.68;;;24.40;51.90;;;;;;5012963;28;20033;-54
2021/09/30 07:41:52;;;;;;;1.15;0.50;;;24.40;51.90;;;;;;5028728;28;20034;-55
2021/09/30 07:44:18;;;;;;;1.20;0.70;;;24.40;51.90;;;;;;5020410;28;20029;-57
2021/09/30 07:46:45;;;;;;;1.15;0.60;;;24.40;51.80;;;;;;5029108;28;20028;-57
2021/09/30 07:49:12;;;;;;;1.00;0.50;;;24.40;51.80;;;;;;5016830;28;20029;-55
2021/09/30 07:51:39;;;;;;;1.08;0.60;;;24.40;51.70;;;;;;5022165;28;20036;-59
2021/09/30 07:54:07;;;;;;;1.50;0.70;;;24.50;51.80;;;;;;5025547;28;20055;-53
2021/09/30 07:56:33;;;;;;;1.42;0.80;;;24.50;51.80;;;;;;5025407;28;20033;-56
2021/09/30 07:59:00;;;;;;;1.70;0.70;;;24.50;51.80;;;;;;5015797;28;20034;-56
2021/09/30 08:01:26;;;;;;;1.55;0.60;;;24.50;52.00;;;;;;5013811;28;20037;-59
2021/09/30 08:03:52;;;;;;;0.98;0.60;;;24.50;51.70;;;;;;5014397;28;20386;-56
2021/09/30 08:06:18;;;;;;;1.25;0.70;;;24.50;51.70;;;;;;5017796;28;20021;-60
2021/09/30 08:08:44;;;;;;;1.38;0.75;;;24.50;51.70;;;;;;5027180;28;20453;-54
2021/09/30 08:11:10;;;;;;;0.90;0.60;;;24.60;51.70;;;;;;5027357;28;20487;-60
2021/09/30 08:13:37;;;;;;;2.58;0.70;;;24.60;51.70;;;;;;5021722;28;20025;-60
2021/09/30 08:16:04;;;;;;;1.10;0.50;;;24.50;51.70;;;;;;5018627;28;20033;-59
2021/09/30 08:18:30;;;;;;;0.73;0.50;;;24.50;51.80;;;;;;5017808;28;20038;-55
2021/09/30 08:20:56;;;;;;;1.02;0.60;;;24.60;51.90;;;;;;5015073;28;20056;-58
2021/09/30 08:23:22;;;;;;;1.20;0.60;;;24.60;51.80;;;;;;5017971;28;20040;-60
2021/09/30 08:25:48;;;;;;;1.30;0.60;;;24.60;51.90;;;;;;5016871;28;20037;-59
2021/09/30 08:28:14;;;;;;;1.42;0.80;;;24.60;52.20;;;;;;5029256;28;20038;-56
2021/09/30 08:30:41;;;;;;;1.65;0.63;;;24.60;51.70;;;;;;5023340;28;20509;-61
2021/09/30 08:33:10;;;;;;;1.35;0.70;;;24.60;51.60;;;;;;5014098;28;20038;-54
2021/09/30 08:35:38;;;;;;;1.85;0.60;;;24.60;51.50;;;;;;5024438;28;20148;-57
2021/09/30 08:38:05;;;;;;;0.95;0.77;;;24.70;51.50;;;;;;5015313;28;20112;-51
2021/09/30 08:40:32;;;;;;;1.35;0.57;;;24.70;51.50;;;;;;5016111;28;20086;-56
2021/09/30 08:42:58;;;;;;;1.55;0.82;;;24.70;51.50;;;;;;5021651;28;20166;-58
2021/09/30 08:45:23;;;;;;;1.08;0.68;;;24.70;51.50;;;;;;5014777;28;20155;-58
2021/09/30 08:48:00;;;;;;;1.05;0.65;;;24.60;51.50;;;;;;5017246;28;22061;-55
2021/09/30 08:50:28;;;;;;;1.90;0.75;;;24.70;51.60;;;;;;5021456;28;20029;-54
2021/09/30 08:52:54;;;;;;;2.08;0.82;;;24.60;51.50;;;;;;5016684;28;20068;-60
2021/09/30 08:55:20;;;;;;;2.40;1.05;;;24.70;51.50;;;;;;5020386;28;20427;-60
2021/09/30 08:57:49;;;;;;;2.28;0.70;;;24.70;51.90;;;;;;5021547;28;20104;-60
2021/09/30 09:00:17;;;;;;;1.35;0.70;;;24.70;51.30;;;;;;5014586;28;20386;-59
2021/09/30 09:02:47;;;;;;;1.33;0.60;;;24.80;51.30;;;;;;5017431;28;20025;-55
2021/09/30 09:05:14;;;;;;;2.00;0.63;;;24.80;51.30;;;;;;5031951;28;20365;-55
2021/09/30 09:07:53;;;;;;;4.47;0.77;;;24.70;51.30;;;;;;5022845;28;20052;-58
2021/09/30 09:10:21;;;;;;;2.53;0.77;;;24.70;52.10;;;;;;5027973;28;20026;-58
2021/09/30 09:13:03;;;;;;;1.70;0.77;;;24.70;51.50;;;;;;5035229;28;20048;-59
2021/09/30 09:15:39;;;;;;;1.45;0.60;;;24.80;51.40;;;;;;5019994;28;20034;-52
2021/09/30 09:18:16;;;;;;;1.10;0.77;;;24.80;51.30;;;;;;5016254;28;20032;-60
2021/09/30 09:20:45;;;;;;;3.05;0.70;;;24.80;51.20;;;;;;5014599;28;20142;-57
2021/09/30 09:23:11;;;;;;;3.30;0.80;;;24.80;51.10;;;;;;5017313;28;20565;-58
2021/09/30 09:25:37;;;;;;;1.30;0.70;;;24.80;51.20;;;;;;5017635;28;20042;-60
2021/09/30 09:28:03;;;;;;;2.65;0.80;;;24.80;51.20;;;;;;5012265;28;20034;-57
2021/09/30 09:30:47;;;;;;;2.30;0.75;;;24.80;51.10;;;;;;5012583;28;20167;-59
2021/09/30 09:33:15;;;;;;;1.35;0.70;;;24.80;51.10;;;;;;5015022;28;20067;-60
2021/09/30 09:35:53;;;;;;;2.90;1.00;;;24.80;51.10;;;;;;5015267;28;20350;-54
2021/09/30 09:38:20;;;;;;;2.10;0.80;;;24.80;51.10;;;;;;5016078;28;20053;-57
2021/09/30 09:40:46;;;;;;;2.65;0.88;;;24.80;51.00;;;;;;5021673;28;20461;-60
2021/09/30 09:43:36;;;;;;;1.73;0.70;;;24.80;51.00;;;;;;5029151;28;20030;-56
2021/09/30 09:46:03;;;;;;;2.20;0.80;;;24.90;51.10;;;;;;5016947;28;20390;-60
2021/09/30 09:48:33;;;;;;;2.03;0.80;;;24.80;51.10;;;;;;5021789;28;20028;-60
2021/09/30 09:50:59;;;;;;;;;;;24.80;51.00;;;;;;5013138;28;20075;-59
2021/09/30 09:53:27;;;;;;;3.65;0.90;;;24.80;51.10;;;;;;5018740;28;19917;-60
2021/09/30 09:55:52;;;;;;;2.25;0.80;;;24.80;51.00;;;;;;5018549;28;20021;-58
2021/09/30 09:58:18;;;;;;;1.67;0.80;;;24.90;51.10;;;;;;5020871;28;20638;-54
2021/09/30 10:00:50;;;;;;;1.75;0.70;;;24.90;51.00;;;;;;5020496;28;20045;-56
2021/09/30 10:03:22;;;;;;;1.60;0.70;;;24.90;51.00;;;;;;5012952;28;20053;-60
2021/09/30 10:05:49;;;;;;;1.48;0.70;;;24.90;51.00;;;;;;5013930;28;20029;-60
2021/09/30 10:08:16;;;;;;;2.28;0.90;;;24.90;51.00;;;;;;5012862;28;20120;-58
2021/09/30 10:10:44;;;;;;;1.67;0.60;;;24.90;51.10;;;;;;5014064;28;20056;-53
2021/09/30 10:13:09;;;;;;;1.83;0.80;;;24.90;51.60;;;;;;5016701;28;20038;-57
2021/09/30 10:15:37;;;;;;;1.70;0.77;;;24.90;51.10;;;;;;5013826;28;20041;-56
2021/09/30 10:18:07;;;;;;;2.30;0.82;;;24.90;51.10;;;;;;5015950;28;20025;-56
2021/09/30 10:20:34;;;;;;;1.50;0.80;;;24.90;51.10;;;;;;5016563;28;20048;-59
2021/09/30 10:23:02;;;;;;;1.88;0.68;;;24.90;51.00;;;;;;5015253;28;20042;-57
2021/09/30 10:25:36;;;;;;;1.67;0.63;;;24.80;50.90;;;;;;5017378;28;20057;-57
2021/09/30 10:28:06;;;;;;;2.42;0.60;;;24.90;50.90;;;;;;5014685;28;20033;-60
2021/09/30 10:30:50;;;;;;;1.45;0.60;;;24.90;50.90;;;;;;5014979;28;20062;-56
2021/09/30 10:33:22;;;;;;;1.27;0.70;;;24.80;50.80;;;;;;5017228;28;20852;-57
2021/09/30 10:35:52;;;;;;;1.27;0.70;;;24.80;50.80;;;;;;5017728;28;20133;-59
2021/09/30 10:38:29;;;;;;;1.00;0.50;;;24.80;50.90;;;;;;5016337;28;20022;-59
2021/09/30 10:41:13;;;;;;;4.32;0.70;;;24.80;50.80;;;;;;5023484;28;20056;-60
2021/09/30 10:43:46;;;;;;;1.42;0.65;;;24.90;50.80;;;;;;5015700;28;20377;-60
2021/09/30 10:46:21;;;;;;;1.63;0.60;;;24.90;50.80;;;;;;5017367;28;20042;-52
2021/09/30 10:48:48;;;;;;;1.40;0.70;;;24.80;50.70;;;;;;5016534;28;20141;-53
2021/09/30 10:51:14;;;;;;;1.45;0.63;;;24.90;50.70;;;;;;5024803;28;20045;-58
2021/09/30 10:53:46;;;;;;;2.17;0.93;;;24.90;50.60;;;;;;5028119;28;20137;-58
2021/09/30 10:56:30;;;;;;;2.60;1.00;;;24.90;50.60;;;;;;5034768;28;20036;-60
2021/09/30 10:59:00;;;;;;;2.30;1.10;;;24.90;50.50;;;;;;5027724;28;20032;-53
2021/09/30 11:01:26;;;;;;;2.58;0.95;;;24.90;50.50;;;;;;5027079;28;20030;-56
2021/09/30 11:03:58;;;;;;;4.10;1.10;;;24.90;50.50;;;;;;5016074;28;20103;-60
2021/09/30 11:06:24;;;;;;;2.92;1.20;;;24.90;50.60;;;;;;5025123;28;20084;-50
2021/09/30 11:09:14;;;;;;;2.40;1.10;;;24.90;50.50;;;;;;5023620;28;20021;-60
2021/09/30 11:11:41;;;;;;;2.47;1.20;;;24.90;50.50;;;;;;5029227;28;20033;-57
2021/09/30 11:14:07;;;;;;;2.53;1.30;;;24.90;50.50;;;;;;5030739;28;20697;-54
2021/09/30 11:16:39;;;;;;;3.38;1.20;;;24.90;50.50;;;;;;5025874;28;20049;-60
2021/09/30 11:19:05;;;;;;;3.25;1.25;;;24.90;50.50;;;;;;5023327;28;20107;-58
2021/09/30 11:21:31;;;;;;;3.72;1.58;;;24.90;50.60;;;;;;5021984;28;20056;-58
2021/09/30 11:24:04;;;;;;;3.42;1.40;;;24.90;50.60;;;;;;5020774;28;20041;-54
2021/09/30 11:26:32;;;;;;;5.07;1.88;;;24.90;51.10;;;;;;5019741;28;20087;-58
2021/09/30 11:29:33;;;;;;;4.20;2.03;;;24.90;50.40;;;;;;5021668;28;20048;-58
2021/09/30 11:31:59;;;;;;;5.18;1.70;;;24.90;50.40;;;;;;5014296;28;20042;-60
2021/09/30 11:34:37;;;;;;;3.20;1.60;;;24.90;50.40;;;;;;5012415;28;20042;-53
2021/09/30 11:37:25;;;;;;;4.32;1.85;;;25.00;50.60;;;;;;5014237;28;22723;-58
2021/09/30 11:39:52;;;;;;;3.83;1.67;;;24.90;50.40;;;;;;5019018;28;20025;-59
2021/09/30 11:42:23;;;;;;;3.35;1.70;;;24.90;50.50;;;;;;5016129;28;20623;-59
2021/09/30 11:45:00;;;;;;;3.80;1.80;;;24.90;50.60;;;;;;5013254;28;20074;-59
2021/09/30 11:47:28;;;;;;;3.20;1.67;;;24.90;50.50;;;;;;5013953;28;20045;-59
2021/09/30 11:49:54;;;;;;;3.22;1.80;;;24.90;50.50;;;;;;5017660;28;20038;-59
2021/09/30 11:52:20;;;;;;;4.28;2.00;;;24.90;50.40;;;;;;5013986;28;20461;-59
2021/09/30 11:54:46;;;;;;;5.00;2.15;;;24.90;50.40;;;;;;5022611;28;20024;-56
2021/09/30 11:57:26;;;;;;;4.43;2.10;;;24.90;50.20;;;;;;5025848;28;20519;-57
2021/09/30 12:00:06;;;;;;;4.35;2.13;;;24.90;50.20;;;;;;5020294;28;20037;-60
2021/09/30 12:02:31;;;;;;;4.97;1.90;;;25.00;50.30;;;;;;5019713;28;20073;-58
2021/09/30 12:04:57;;;;;;;4.53;1.92;;;25.00;50.30;;;;;;5022780;28;20061;-59
2021/09/30 12:07:25;;;;;;;5.93;2.65;;;25.00;50.30;;;;;;5024061;28;20033;-51
2021/09/30 12:09:57;;;;;;;4.15;2.13;;;25.00;50.30;;;;;;5033148;28;20029;-60
2021/09/30 12:12:35;;;;;;;3.72;1.98;;;25.00;50.30;;;;;;5033649;28;20864;-60
2021/09/30 12:15:03;;;;;;;4.03;1.88;;;25.00;50.30;;;;;;5016153;28;20232;-55
2021/09/30 12:17:34;;;;;;;3.60;1.95;;;25.00;50.20;;;;;;5030405;28;20037;-57
2021/09/30 12:20:00;;;;;;;4.07;2.13;;;25.00;50.30;;;;;;5026902;28;20040;-60
2021/09/30 12:22:33;;;;;;;4.45;2.10;;;25.00;50.30;;;;;;5020944;28;20693;-59
2021/09/30 12:25:04;;;;;;;4.28;2.20;;;25.00;50.20;;;;;;5039251;28;20120;-61
2021/09/30 12:27:33;;;;;;;3.38;1.90;;;25.00;50.20;;;;;;5023962;28;20037;-59
2021/09/30 12:30:10;;;;;;;4.20;2.13;;;25.00;50.20;;;;;;5022227;28;20136;-58
2021/09/30 12:32:39;;;;;;;4.78;1.90;;;25.00;50.30;;;;;;5019603;28;20045;-59
2021/09/30 12:35:11;;;;;;;3.90;1.92;;;25.10;50.40;;;;;;5019414;28;20508;-56
2021/09/30 12:37:45;;;;;;;2.80;1.60;;;25.00;50.30;;;;;;5023097;28;20025;-59
2021/09/30 12:40:40;;;;;;;3.28;1.77;;;25.10;50.40;;;;;;5023911;28;20030;-58
2021/09/30 12:43:09;;;;;;;3.75;2.00;;;25.10;50.40;;;;;;5018894;28;20520;-54
2021/09/30 12:45:40;;;;;;;5.10;2.05;;;25.10;50.40;;;;;;5019957;28;20628;-52
2021/09/30 12:48:12;;;;;;;4.22;2.10;;;25.10;50.40;;;;;;5025955;28;20503;-58
2021/09/30 12:50:39;;;;;;;3.95;1.90;;;25.10;50.40;;;;;;5021287;28;20029;-57
2021/09/30 12:53:05;;;;;;;3.47;1.98;;;25.10;50.40;;;;;;5014691;28;20115;-60
2021/09/30 12:55:31;;;;;;;3.70;1.90;;;25.10;50.30;;;;;;5022691;28;20112;-61
2021/09/30 12:57:57;;;;;;;3.42;1.70;;;25.10;50.30;;;;;;5020500;28;20408;-61
2021/09/30 13:00:24;;;;;;;4.28;1.95;;;25.10;50.20;;;;;;5014925;28;20022;-60
2021/09/30 13:02:55;;;;;;;4.53;2.05;;;25.10;50.20;;;;;;5023773;28;20040;-59
2021/09/30 13:05:23;;;;;;;3.80;1.90;;;25.10;50.20;;;;;;5027036;28;20174;-54
2021/09/30 13:07:57;;;;;;;3.47;1.77;;;25.10;50.20;;;;;;5025248;28;20133;-60
2021/09/30 13:10:33;;;;;;;3.67;1.92;;;25.10;50.10;;;;;;5017590;28;20037;-59
2021/09/30 13:13:03;;;;;;;2.92;1.60;;;25.10;50.00;;;;;;5024785;28;20063;-60
2021/09/30 13:15:38;;;;;;;3.20;1.60;;;25.10;50.10;;;;;;5016998;28;20105;-59
2021/09/30 13:18:06;;;;;;;3.58;1.70;;;25.10;50.20;;;;;;5016749;28;20504;-58
2021/09/30 13:20:31;;;;;;;3.63;1.73;;;25.10;50.10;;;;;;5020943;28;20126;-57
2021/09/30 13:22:57;;;;;;;4.20;2.00;;;25.10;50.10;;;;;;5022321;28;20046;-61
2021/09/30 13:25:23;;;;;;;3.20;1.85;;;25.10;50.00;;;;;;5017064;28;20813;-57
2021/09/30 13:27:50;;;;;;;3.85;2.00;;;25.10;50.10;;;;;;5021850;28;20025;-60
2021/09/30 13:30:24;;;;;;;3.55;1.92;;;25.10;50.10;;;;;;5012885;28;20449;-61
2021/09/30 13:32:52;;;;;;;3.47;1.80;;;25.10;50.10;;;;;;5022986;28;20030;-53
2021/09/30 13:35:23;;;;;;;3.53;1.55;;;25.20;50.20;;;;;;5024685;28;20029;-59
2021/09/30 13:37:49;;;;;;;3.20;1.80;;;25.20;50.10;;;;;;5015534;28;20043;-60
2021/09/30 13:40:14;;;;;;;4.25;1.95;;;25.10;50.10;;;;;;5022389;28;20036;-59
2021/09/30 13:42:40;;;;;;;3.42;1.63;;;25.20;50.20;;;;;;5025565;28;20474;-57
2021/09/30 13:45:12;;;;;;;3.50;1.70;;;25.20;50.20;;;;;;5036710;28;20025;-59
2021/09/30 13:47:38;;;;;;;4.28;2.00;;;25.20;50.20;;;;;;5027524;28;20116;-60
2021/09/30 13:50:06;;;;;;;2.88;1.50;;;25.20;50.20;;;;;;5027572;28;20041;-58
2021/09/30 13:52:32;;;;;;;3.15;1.58;;;25.20;50.10;;;;;;5024219;28;20033;-56
2021/09/30 13:54:57;;;;;;;3.67;1.70;;;25.20;50.10;;;;;;5026664;28;20024;-57
2021/09/30 13:57:23;;;;;;;3.50;1.75;;;25.20;50.20;;;;;;5021280;28;20091;-60
2021/09/30 13:59:49;;;;;;;4.00;1.75;;;25.20;50.20;;;;;;5022115;28;20095;-57
2021/09/30 14:02:15;;;;;;;4.32;1.80;;;25.20;50.20;;;;;;5021168;28;20489;-61
2021/09/30 14:04:40;;;;;;;3.30;1.73;;;25.20;50.20;;;;;;5026452;28;20133;-55
2021/09/30 14:07:07;;;;;;;5.05;1.98;;;25.20;50.20;;;;;;5023282;28;20057;-60
2021/09/30 14:09:34;;;;;;;3.88;1.98;;;25.20;50.40;;;;;;5022119;28;20021;-60
2021/09/30 14:12:01;;;;;;;3.53;1.60;;;25.20;50.30;;;;;;5023644;28;20045;-60
2021/09/30 14:14:27;;;;;;;2.88;1.65;;;25.20;50.40;;;;;;5021169;28;20052;-58
2021/09/30 14:16:53;;;;;;;3.20;1.60;;;25.20;50.40;;;;;;5024829;28;20034;-61
2021/09/30 14:19:20;;;;;;;2.70;1.40;;;25.20;50.30;;;;;;5018315;28;20053;-58
2021/09/30 14:21:46;;;;;;;3.72;1.80;;;25.20;50.40;;;;;;5020443;28;20043;-58
2021/09/30 14:24:12;;;;;;;3.17;1.55;;;25.20;50.40;;;;;;5013792;28;20053;-60
2021/09/30 14:26:38;;;;;;;5.35;1.75;;;25.30;50.60;;;;;;5016675;28;20436;-60
2021/09/30 14:29:05;;;;;;;3.15;1.58;;;25.30;50.70;;;;;;5020984;28;20021;-58
2021/09/30 14:31:31;;;;;;;2.28;1.40;;;25.30;50.70;;;;;;5013306;28;20038;-58
2021/09/30 14:33:57;;;;;;;5.63;1.88;;;25.30;50.70;;;;;;5019833;28;20032;-54
2021/09/30 14:36:22;;;;;;;3.67;1.70;;;25.30;50.70;;;;;;5016509;28;20508;-57
2021/09/30 14:38:48;;;;;;;3.38;1.70;;;25.30;50.20;;;;;;5017148;28;20046;-57
2021/09/30 14:41:14;;;;;;;3.17;1.55;;;25.30;50.70;;;;;;5017367;28;20057;-59
2021/09/30 14:43:40;;;;;;;4.15;1.70;;;25.30;50.20;;;;;;5021774;28;20041;-59
2021/09/30 14:46:06;;;;;;;5.55;1.75;;;25.30;50.20;;;;;;5015819;28;20034;-57
2021/09/30 14:48:34;;;;;;;3.72;1.58;;;25.30;50.40;;;;;;5021756;28;20694;-59
2021/09/30 14:51:01;;;;;;;2.80;1.45;;;25.30;50.40;;;;;;5019063;28;20601;-59
2021/09/30 14:53:28;;;;;;;3.40;1.48;;;25.30;50.50;;;;;;5025294;28;20088;-60
2021/09/30 14:55:53;;;;;;;3.55;1.50;;;25.30;50.50;;;;;;5020843;28;20495;-60
2021/09/30 14:58:19;;;;;;;3.15;1.55;;;25.30;50.40;;;;;;5018511;28;20153;-57
2021/09/30 15:00:45;;;;;;;3.17;1.58;;;25.30;50.40;;;;;;5020144;28;20034;-60
2021/09/30 15:03:10;;;;;;;3.58;1.70;;;25.30;50.50;;;;;;5014902;28;20080;-60
2021/09/30 15:05:36;;;;;;;3.13;1.67;;;25.30;50.50;;;;;;5016195;28;20034;-60
2021/09/30 15:08:02;;;;;;;4.43;1.60;;;25.30;50.50;;;;;;5013017;28;20037;-58
2021/09/30 15:10:28;;;;;;;3.00;1.50;;;25.30;50.50;;;;;;5018241;28;20033;-57
2021/09/30 15:12:54;;;;;;;3.10;1.42;;;25.30;50.50;;;;;;5019743;28;20063;-59
2021/09/30 15:15:21;;;;;;;3.63;1.38;;;25.20;50.40;;;;;;5011975;28;20037;-57
2021/09/30 15:17:54;;;;;;;3.58;1.50;;;25.20;50.40;;;;;;5012561;28;20135;-57
2021/09/30 15:23:07;;;;;;;3.35;1.70;;;25.20;50.40;;;;;;5015830;28;20065;-59
2021/09/30 15:25:37;;;;;;;3.95;1.63;;;25.20;50.40;;;;;;5015619;28;20036;-57
2021/09/30 15:28:05;;;;;;;2.85;1.40;;;25.10;50.40;;;;;;5018065;28;20515;-59
2021/09/30 15:30:31;;;;;;;3.75;1.73;;;25.10;50.40;;;;;;5015439;28;20051;-54
2021/09/30 15:32:56;;;;;;;3.63;1.50;;;25.20;50.50;;;;;;5014627;28;20034;-58
2021/09/30 15:35:22;;;;;;;3.15;1.25;;;25.10;50.50;;;;;;5016114;28;20504;-57
2021/09/30 15:37:48;;;;;;;3.08;1.30;;;25.10;50.40;;;;;;5015633;28;20037;-58
2021/09/30 15:40:16;;;;;;;3.03;1.30;;;25.10;50.20;;;;;;5015209;28;20400;-55
2021/09/30 15:42:42;;;;;;;3.13;1.20;;;25.00;49.80;;;;;;5016017;28;21044;-58
2021/09/30 15:45:08;;;;;;;2.70;1.10;;;25.00;49.60;;;;;;5014361;28;20029;-58
2021/09/30 15:47:33;;;;;;;2.58;1.23;;;25.00;49.40;;;;;;5015919;28;20045;-57
2021/09/30 15:49:59;;;;;;;3.30;1.20;;;25.00;49.30;;;;;;5017378;28;20029;-59
2021/09/30 15:52:25;;;;;;;4.32;1.45;;;25.00;49.30;;;;;;5016751;28;20044;-57
2021/09/30 15:54:50;;;;;;;2.80;1.20;;;25.00;49.10;;;;;;5018332;28;20022;-60
2021/09/30 15:57:16;;;;;;;3.30;1.23;;;25.00;49.10;;;;;;5015255;28;20401;-60